Time;durP1;ratioP1;P1;durP2;ratioP2;P2;SDS_P1;SDS_P2;PMS_P1;PMS_P2;Temp;Humidity;BMP_temperature;BMP_pressure;BME280_temperature;BME280_humidity;BME280_pressure;Samples;Min_cycle;Max_cycle;Signal;HPM_P1;HPM_P2
2024/01/31 00:00:31;;;;;;;16.17;12.60;;;13.70;54.90;;;;;;5020293;28;20189;-61
2024/01/31 00:02:57;;;;;;;15.00;11.87;;;13.70;55.00;;;;;;5020715;28;20592;-61
2024/01/31 00:05:22;;;;;;;17.90;13.00;;;13.70;55.10;;;;;;5027442;28;20192;-66
2024/01/31 00:07:48;;;;;;;17.37;12.40;;;13.70;55.00;;;;;;5024106;28;20695;-64
2024/01/31 00:10:14;;;;;;;14.20;11.60;;;13.70;55.00;;;;;;5025375;28;20301;-62
2024/01/31 00:12:40;;;;;;;16.50;11.83;;;13.70;54.90;;;;;;5019863;28;20529;-62
2024/01/31 00:15:06;;;;;;;14.73;12.37;;;13.70;54.90;;;;;;5025957;28;20718;-63
2024/01/31 00:17:31;;;;;;;13.60;11.07;;;13.70;54.90;;;;;;5021299;28;20225;-63
2024/01/31 00:19:57;;;;;;;17.53;13.17;;;13.70;55.00;;;;;;5025303;28;20495;-63
2024/01/31 00:22:22;;;;;;;18.40;15.23;;;13.70;55.10;;;;;;5023211;28;20181;-67
2024/01/31 00:24:48;;;;;;;24.40;18.27;;;13.60;55.10;;;;;;5025434;28;20207;-67
2024/01/31 00:27:13;;;;;;;25.50;17.80;;;13.70;55.20;;;;;;5023009;28;20234;-64
2024/01/31 00:29:39;;;;;;;24.50;15.77;;;13.70;55.40;;;;;;5023679;28;20196;-63
2024/01/31 00:32:05;;;;;;;23.70;16.47;;;13.60;55.40;;;;;;5023059;28;20229;-67
2024/01/31 00:34:31;;;;;;;18.40;15.40;;;13.70;55.50;;;;;;5021991;28;20212;-65
2024/01/31 00:36:57;;;;;;;20.20;14.07;;;13.70;55.50;;;;;;5021976;28;20471;-67
2024/01/31 00:39:28;;;;;;;21.97;14.10;;;13.70;55.40;;;;;;5027544;28;20475;-66
2024/01/31 00:41:54;;;;;;;17.30;13.17;;;13.70;55.50;;;;;;5022854;28;20224;-62
2024/01/31 00:44:20;;;;;;;18.63;12.77;;;13.70;55.50;;;;;;5019729;28;20456;-61
2024/01/31 00:46:47;;;;;;;16.20;14.07;;;13.70;55.40;;;;;;5020124;28;20589;-64
2024/01/31 00:49:12;;;;;;;20.37;14.47;;;13.60;55.50;;;;;;5024343;28;20181;-65
2024/01/31 00:51:43;;;;;;;23.83;15.47;;;13.70;55.50;;;;;;5023491;28;20467;-64
2024/01/31 00:54:09;;;;;;;20.07;15.30;;;13.60;55.60;;;;;;5022528;28;20565;-67
2024/01/31 00:56:35;;;;;;;21.97;15.67;;;13.70;55.60;;;;;;5022442;28;20459;-65
2024/01/31 00:59:00;;;;;;;27.17;15.83;;;13.70;56.10;;;;;;5019073;28;20407;-64
2024/01/31 01:01:26;;;;;;;22.63;17.20;;;13.70;55.40;;;;;;5019525;28;20200;-66
2024/01/31 01:03:51;;;;;;;21.10;15.17;;;13.70;55.50;;;;;;5024625;28;20188;-65
2024/01/31 01:06:17;;;;;;;24.83;15.37;;;13.70;56.00;;;;;;5018717;28;20209;-69
2024/01/31 01:08:42;;;;;;;20.37;14.70;;;13.70;55.60;;;;;;5020691;28;20189;-61
2024/01/31 01:11:08;;;;;;;18.10;14.17;;;13.70;55.50;;;;;;5023444;28;20224;-67
2024/01/31 01:13:33;;;;;;;18.13;14.03;;;13.70;55.30;;;;;;5019306;28;20676;-61
2024/01/31 01:15:59;;;;;;;21.00;14.83;;;13.70;55.30;;;;;;5022690;28;20303;-65
2024/01/31 01:18:25;;;;;;;17.70;13.27;;;13.60;55.20;;;;;;5023723;28;20558;-62
2024/01/31 01:20:50;;;;;;;17.17;12.60;;;13.60;55.30;;;;;;5023478;28;20213;-62
2024/01/31 01:23:16;;;;;;;18.10;13.63;;;13.60;55.30;;;;;;5021704;28;20192;-65
2024/01/31 01:25:42;;;;;;;16.10;12.30;;;13.70;55.30;;;;;;5016354;28;20213;-65
2024/01/31 01:28:07;;;;;;;18.43;12.80;;;13.70;55.40;;;;;;5023813;28;20241;-64
2024/01/31 01:30:33;;;;;;;14.73;13.00;;;13.70;55.40;;;;;;5019909;28;20614;-63
2024/01/31 01:32:58;;;;;;;15.80;12.27;;;13.60;55.30;;;;;;5022674;28;20200;-63
2024/01/31 01:35:24;;;;;;;13.60;12.00;;;13.60;55.40;;;;;;5019184;28;20193;-62
2024/01/31 01:37:49;;;;;;;17.53;12.23;;;13.60;55.50;;;;;;5021294;28;20566;-69
2024/01/31 01:40:16;;;;;;;13.47;11.93;;;13.60;55.50;;;;;;5018223;28;20599;-63
2024/01/31 01:42:42;;;;;;;17.53;11.40;;;13.70;55.50;;;;;;5022085;28;20276;-63
2024/01/31 01:45:08;;;;;;;13.10;11.57;;;13.70;55.40;;;;;;5017597;28;20593;-66
2024/01/31 01:47:42;;;;;;;17.43;12.27;;;13.70;55.40;;;;;;5020535;28;20770;-65
2024/01/31 01:50:10;;;;;;;13.90;11.60;;;13.70;55.50;;;;;;5020840;28;20797;-65
2024/01/31 01:52:37;;;;;;;12.83;11.00;;;13.60;55.60;;;;;;5021877;28;21229;-62
2024/01/31 01:55:03;;;;;;;15.13;11.33;;;13.60;55.60;;;;;;5020695;28;20530;-66
2024/01/31 01:57:33;;;;;;;13.87;11.40;;;13.60;55.60;;;;;;5028156;28;20532;-64
2024/01/31 02:00:00;;;;;;;14.53;10.80;;;13.60;55.60;;;;;;5026641;28;20782;-60
2024/01/31 02:02:27;;;;;;;12.63;11.20;;;13.60;55.60;;;;;;5027688;28;20432;-64
2024/01/31 02:04:53;;;;;;;12.13;10.00;;;13.60;55.80;;;;;;5023906;28;20816;-63
2024/01/31 02:07:26;;;;;;;13.50;10.83;;;13.50;55.90;;;;;;5021413;28;20455;-66
2024/01/31 02:09:55;;;;;;;12.87;9.63;;;13.50;56.00;;;;;;5024126;28;20788;-66
2024/01/31 02:12:20;;;;;;;14.13;10.10;;;13.50;56.00;;;;;;5018623;28;21003;-67
2024/01/31 02:14:47;;;;;;;13.20;10.40;;;13.50;56.00;;;;;;5021801;28;20467;-64
2024/01/31 02:17:13;;;;;;;17.53;10.37;;;13.50;56.10;;;;;;5025446;28;20213;-63
2024/01/31 02:19:39;;;;;;;16.10;11.30;;;13.50;56.20;;;;;;5028568;28;20442;-63
2024/01/31 02:22:09;;;;;;;15.40;11.13;;;13.50;56.20;;;;;;5028942;28;20480;-65
2024/01/31 02:24:34;;;;;;;13.23;11.57;;;13.50;56.80;;;;;;5022277;28;20669;-65
2024/01/31 02:27:00;;;;;;;14.63;11.77;;;13.50;56.10;;;;;;5024519;28;20494;-66
2024/01/31 02:29:25;;;;;;;15.07;11.80;;;13.50;56.00;;;;;;5024052;28;20653;-63
2024/01/31 02:31:51;;;;;;;14.13;11.60;;;13.60;56.10;;;;;;5026433;28;20287;-68
2024/01/31 02:34:18;;;;;;;14.63;10.90;;;13.60;56.00;;;;;;5029055;28;20251;-64
2024/01/31 02:36:44;;;;;;;14.57;11.43;;;13.50;56.00;;;;;;5024785;28;20201;-65
2024/01/31 02:39:09;;;;;;;18.03;12.43;;;13.60;56.10;;;;;;5022639;28;20446;-65
2024/01/31 02:41:35;;;;;;;14.60;11.40;;;13.60;55.90;;;;;;5025958;28;20285;-65
2024/01/31 02:44:00;;;;;;;15.03;10.80;;;13.60;55.80;;;;;;5027127;28;20189;-67
2024/01/31 02:46:26;;;;;;;13.63;11.77;;;13.60;55.90;;;;;;5023638;28;20205;-65
2024/01/31 02:48:51;;;;;;;17.50;12.40;;;13.50;56.50;;;;;;5023974;28;20181;-66
2024/01/31 02:51:17;;;;;;;13.70;11.00;;;13.60;55.90;;;;;;5027796;28;20311;-64
2024/01/31 02:53:42;;;;;;;12.67;11.23;;;13.70;55.90;;;;;;5028133;28;20732;-66
2024/01/31 02:56:10;;;;;;;12.30;11.00;;;13.60;55.80;;;;;;5025766;28;20216;-67
2024/01/31 02:58:36;;;;;;;13.53;10.90;;;13.60;55.80;;;;;;5026215;28;20190;-63
2024/01/31 03:01:06;;;;;;;15.00;11.83;;;13.60;55.90;;;;;;5026001;28;20416;-64
2024/01/31 03:03:31;;;;;;;15.77;11.37;;;13.50;55.90;;;;;;5028799;28;20201;-63
2024/01/31 03:05:57;;;;;;;13.23;10.67;;;13.50;56.00;;;;;;5021439;28;20861;-65
2024/01/31 03:08:23;;;;;;;12.67;11.00;;;13.50;56.00;;;;;;5025823;28;20208;-65
2024/01/31 03:10:48;;;;;;;15.53;11.70;;;13.50;56.20;;;;;;5025278;28;20213;-62
2024/01/31 03:13:14;;;;;;;13.63;10.60;;;13.50;56.10;;;;;;5024887;28;20466;-65
2024/01/31 03:15:40;;;;;;;13.40;10.60;;;13.50;56.00;;;;;;5022963;28;20287;-65
2024/01/31 03:18:05;;;;;;;12.20;10.87;;;13.50;56.00;;;;;;5024565;28;20443;-64
2024/01/31 03:20:33;;;;;;;13.90;11.77;;;13.50;55.90;;;;;;5024292;28;20897;-66
2024/01/31 03:22:58;;;;;;;15.60;12.07;;;13.60;56.00;;;;;;5026479;28;20189;-64
2024/01/31 03:25:24;;;;;;;13.67;10.80;;;13.60;56.00;;;;;;5027302;28;20487;-63
2024/01/31 03:27:49;;;;;;;12.83;10.53;;;13.40;56.00;;;;;;5023251;28;20196;-64
2024/01/31 03:30:15;;;;;;;13.23;10.43;;;13.30;56.30;;;;;;5026369;28;20189;-66
2024/01/31 03:32:40;;;;;;;12.77;10.03;;;13.30;56.50;;;;;;5018486;28;20221;-61
2024/01/31 03:35:06;;;;;;;12.03;9.00;;;13.40;56.30;;;;;;5019670;28;20330;-62
2024/01/31 03:37:32;;;;;;;14.57;10.10;;;13.40;56.00;;;;;;5016805;28;20319;-62
2024/01/31 03:39:58;;;;;;;11.30;9.57;;;13.40;55.80;;;;;;5028277;28;20428;-65
2024/01/31 03:42:23;;;;;;;12.77;10.17;;;13.40;55.70;;;;;;5022595;28;20194;-66
2024/01/31 03:44:49;;;;;;;12.80;10.30;;;13.50;56.00;;;;;;5025537;28;20549;-64
2024/01/31 03:47:14;;;;;;;11.40;9.20;;;13.50;56.00;;;;;;5024599;28;20288;-63
2024/01/31 03:49:40;;;;;;;11.77;9.40;;;13.50;55.90;;;;;;5023323;28;20182;-65
2024/01/31 03:52:06;;;;;;;11.40;9.90;;;13.50;55.80;;;;;;5028228;28;20304;-65
2024/01/31 03:54:31;;;;;;;12.03;9.20;;;13.60;55.80;;;;;;5021195;28;20181;-67
2024/01/31 03:56:57;;;;;;;10.87;9.13;;;13.60;55.70;;;;;;5020967;28;20244;-64
2024/01/31 03:59:23;;;;;;;14.23;9.20;;;13.60;55.70;;;;;;5026015;28;20192;-65
2024/01/31 04:01:52;;;;;;;13.23;9.67;;;13.60;55.60;;;;;;5027844;28;20181;-64
2024/01/31 04:04:18;;;;;;;11.90;9.90;;;13.60;55.70;;;;;;5029111;28;20420;-62
2024/01/31 04:06:45;;;;;;;12.57;9.10;;;13.60;55.90;;;;;;5021844;28;20459;-66
2024/01/31 04:09:10;;;;;;;12.57;10.17;;;13.60;55.80;;;;;;5023878;28;20185;-64
2024/01/31 04:11:36;;;;;;;12.17;9.60;;;13.60;55.80;;;;;;5029052;28;20478;-64
2024/01/31 04:14:02;;;;;;;10.90;9.50;;;13.60;55.60;;;;;;5020931;28;20280;-66
2024/01/31 04:16:28;;;;;;;12.30;9.10;;;13.60;55.60;;;;;;5021020;28;21046;-64
2024/01/31 04:18:54;;;;;;;10.90;9.67;;;13.60;55.70;;;;;;5023172;28;20511;-65
2024/01/31 04:21:20;;;;;;;11.43;9.13;;;13.40;55.70;;;;;;5026032;28;21078;-68
2024/01/31 04:23:47;;;;;;;11.97;9.27;;;13.30;56.30;;;;;;5023397;28;20204;-65
2024/01/31 04:26:12;;;;;;;12.80;9.10;;;13.30;56.40;;;;;;5020435;28;20462;-63
2024/01/31 04:28:38;;;;;;;14.17;10.07;;;13.40;56.30;;;;;;5024399;28;20440;-65
2024/01/31 04:31:04;;;;;;;10.93;9.07;;;13.50;56.10;;;;;;5021873;28;20478;-68
2024/01/31 04:33:31;;;;;;;10.20;9.20;;;13.50;56.20;;;;;;5023575;28;20237;-62
2024/01/31 04:35:57;;;;;;;14.47;10.47;;;13.50;56.30;;;;;;5026368;28;20494;-64
2024/01/31 04:38:22;;;;;;;12.23;9.10;;;13.60;56.40;;;;;;5021887;28;20260;-62
2024/01/31 04:40:48;;;;;;;10.90;9.10;;;13.60;56.10;;;;;;5022882;28;20273;-67
2024/01/31 04:43:17;;;;;;;11.33;8.80;;;13.60;56.00;;;;;;5026971;28;20224;-69
2024/01/31 04:45:43;;;;;;;12.63;9.00;;;13.60;56.00;;;;;;5021123;28;20724;-65
2024/01/31 04:48:08;;;;;;;9.73;8.63;;;13.60;56.00;;;;;;5027540;28;20424;-63
2024/01/31 04:50:34;;;;;;;10.80;8.70;;;13.60;56.10;;;;;;5024249;28;20446;-65
2024/01/31 04:53:00;;;;;;;11.97;9.50;;;13.60;56.20;;;;;;5019484;28;20173;-65
2024/01/31 04:55:25;;;;;;;11.40;8.40;;;13.60;56.40;;;;;;5025896;28;20201;-63
2024/01/31 04:57:51;;;;;;;12.40;9.57;;;13.70;56.30;;;;;;5024880;28;20188;-68
2024/01/31 05:00:17;;;;;;;11.10;9.23;;;13.60;56.20;;;;;;5022158;28;20251;-65
2024/01/31 05:02:43;;;;;;;9.53;8.47;;;13.60;56.20;;;;;;5027621;28;20224;-64
2024/01/31 05:05:08;;;;;;;10.17;9.17;;;13.70;56.10;;;;;;5025228;28;21128;-66
2024/01/31 05:07:34;;;;;;;10.07;9.00;;;13.70;56.00;;;;;;5021370;28;20651;-64
2024/01/31 05:09:59;;;;;;;11.73;9.30;;;13.70;56.00;;;;;;5025441;28;20185;-65
2024/01/31 05:12:25;;;;;;;15.30;10.17;;;13.70;56.00;;;;;;5021240;28;20217;-64
2024/01/31 05:14:50;;;;;;;16.30;10.13;;;13.70;56.10;;;;;;5025792;28;20311;-67
2024/01/31 05:17:16;;;;;;;11.60;9.37;;;13.60;55.90;;;;;;5022435;28;20224;-64
2024/01/31 05:19:42;;;;;;;12.47;9.97;;;13.60;56.10;;;;;;5025345;28;20177;-64
2024/01/31 05:22:08;;;;;;;12.70;10.03;;;13.60;56.10;;;;;;5026287;28;20220;-65
2024/01/31 05:24:33;;;;;;;14.40;10.20;;;13.60;56.10;;;;;;5028641;28;20454;-62
2024/01/31 05:27:04;;;;;;;12.87;10.30;;;13.60;56.10;;;;;;5021511;28;20672;-63
2024/01/31 05:29:32;;;;;;;13.40;9.10;;;13.60;56.20;;;;;;5023835;28;20202;-62
2024/01/31 05:31:58;;;;;;;13.20;9.67;;;13.70;56.30;;;;;;5021766;28;20834;-67
2024/01/31 05:34:23;;;;;;;15.80;10.80;;;13.70;56.20;;;;;;5026945;28;20450;-63
2024/01/31 05:36:49;;;;;;;36.33;21.47;;;13.70;56.40;;;;;;5024552;28;20616;-67
2024/01/31 05:39:15;;;;;;;27.37;17.63;;;13.70;56.60;;;;;;5023345;28;20185;-67
2024/01/31 05:41:43;;;;;;;26.23;16.23;;;13.60;56.90;;;;;;5027094;28;20196;-65
2024/01/31 05:44:12;;;;;;;19.57;13.77;;;13.60;57.20;;;;;;5024653;28;20205;-64
2024/01/31 05:46:37;;;;;;;17.73;12.80;;;13.60;57.40;;;;;;5020889;28;20529;-65
2024/01/31 05:49:03;;;;;;;18.30;12.50;;;13.60;57.40;;;;;;5025388;28;20479;-65
2024/01/31 05:51:29;;;;;;;17.60;12.00;;;13.60;57.40;;;;;;5025785;28;20217;-64
2024/01/31 05:53:54;;;;;;;16.73;11.90;;;13.60;57.60;;;;;;5028059;28;20684;-65
2024/01/31 05:56:21;;;;;;;15.73;11.07;;;13.60;57.90;;;;;;5030480;28;20465;-65
2024/01/31 05:58:47;;;;;;;14.30;10.87;;;13.50;58.00;;;;;;5025894;28;20197;-68
2024/01/31 06:01:12;;;;;;;15.23;10.00;;;13.50;58.20;;;;;;5024924;28;20454;-64
2024/01/31 06:03:38;;;;;;;13.90;11.13;;;13.50;58.10;;;;;;5024514;28;20196;-66
2024/01/31 06:06:04;;;;;;;13.73;9.20;;;13.50;58.00;;;;;;5022200;28;20576;-64
2024/01/31 06:08:30;;;;;;;12.80;9.17;;;13.50;58.10;;;;;;5022072;28;20276;-67
2024/01/31 06:11:02;;;;;;;12.13;9.50;;;13.50;58.00;;;;;;5031489;28;20558;-64
2024/01/31 06:13:29;;;;;;;11.13;9.93;;;13.60;58.20;;;;;;5024981;28;20185;-63
2024/01/31 06:15:54;;;;;;;12.63;9.97;;;13.60;58.40;;;;;;5029349;28;20948;-63
2024/01/31 06:18:22;;;;;;;9.20;8.30;;;13.60;58.80;;;;;;5029447;28;20527;-60
2024/01/31 06:20:48;;;;;;;12.20;9.60;;;13.70;59.10;;;;;;5029331;28;20177;-63
2024/01/31 06:23:13;;;;;;;12.63;11.23;;;13.90;59.00;;;;;;5024677;28;20450;-65
2024/01/31 06:25:39;;;;;;;10.90;9.77;;;14.00;58.80;;;;;;5024117;28;20468;-67
2024/01/31 06:28:08;;;;;;;12.87;9.30;;;14.10;58.40;;;;;;5022306;28;20559;-66
2024/01/31 06:30:41;;;;;;;10.83;9.33;;;14.20;58.50;;;;;;5021388;28;20216;-66
2024/01/31 06:33:07;;;;;;;11.17;9.20;;;14.30;59.00;;;;;;5025022;28;20446;-68
2024/01/31 06:35:34;;;;;;;10.80;9.70;;;14.40;58.40;;;;;;5028698;28;20822;-65
2024/01/31 06:38:00;;;;;;;11.57;9.30;;;14.40;58.40;;;;;;5027229;28;21645;-66
2024/01/31 06:40:25;;;;;;;10.37;9.27;;;14.40;58.70;;;;;;5024143;28;20460;-69
2024/01/31 06:42:52;;;;;;;10.80;9.27;;;14.50;58.40;;;;;;5022747;28;20270;-71
2024/01/31 06:45:17;;;;;;;12.00;9.17;;;14.50;58.30;;;;;;5025445;28;20188;-68
2024/01/31 06:47:43;;;;;;;13.50;9.40;;;14.50;58.20;;;;;;5023745;28;20443;-66
2024/01/31 06:50:10;;;;;;;14.10;10.53;;;14.60;58.40;;;;;;5029901;28;21060;-64
2024/01/31 06:52:36;;;;;;;12.93;10.70;;;14.60;58.80;;;;;;5022829;28;20216;-67
2024/01/31 06:55:04;;;;;;;13.90;10.10;;;14.50;58.00;;;;;;5029411;28;20935;-69
2024/01/31 06:57:31;;;;;;;13.23;10.50;;;14.50;58.30;;;;;;5029616;28;20202;-69
2024/01/31 06:59:57;;;;;;;12.10;9.90;;;14.40;58.40;;;;;;5027336;28;20493;-65
2024/01/31 07:02:23;;;;;;;12.20;10.63;;;14.40;58.40;;;;;;5024671;28;20456;-65
2024/01/31 07:04:48;;;;;;;10.80;9.80;;;14.40;58.30;;;;;;5028134;28;20276;-65
2024/01/31 07:07:14;;;;;;;15.47;11.73;;;14.50;58.40;;;;;;5026103;28;20232;-67
2024/01/31 07:09:39;;;;;;;14.23;11.50;;;14.40;58.20;;;;;;5026250;28;20188;-66
2024/01/31 07:12:05;;;;;;;13.97;10.40;;;14.40;58.20;;;;;;5027061;28;20221;-64
2024/01/31 07:14:31;;;;;;;12.87;9.93;;;14.50;58.20;;;;;;5025813;28;20181;-62
2024/01/31 07:16:56;;;;;;;12.33;10.60;;;14.60;58.10;;;;;;5023641;28;20487;-64
2024/01/31 07:19:22;;;;;;;11.50;9.67;;;14.50;58.00;;;;;;5026894;28;20197;-67
2024/01/31 07:21:48;;;;;;;13.90;9.73;;;14.50;58.00;;;;;;5028483;28;20189;-69
2024/01/31 07:24:13;;;;;;;11.23;9.90;;;14.40;58.10;;;;;;5028140;28;20879;-63
2024/01/31 07:26:39;;;;;;;11.33;9.33;;;14.50;57.90;;;;;;5022693;28;20263;-65
2024/01/31 07:29:08;;;;;;;14.67;10.07;;;14.40;58.20;;;;;;5027724;28;20562;-65
2024/01/31 07:31:33;;;;;;;13.37;10.43;;;14.30;58.30;;;;;;5018009;28;20221;-64
2024/01/31 07:33:59;;;;;;;10.70;9.60;;;14.40;58.30;;;;;;5023307;28;20944;-64
2024/01/31 07:36:24;;;;;;;11.87;10.10;;;14.50;58.10;;;;;;5026127;28;20209;-64
2024/01/31 07:38:50;;;;;;;12.60;10.00;;;14.50;57.90;;;;;;5027241;28;20322;-67
2024/01/31 07:41:16;;;;;;;12.60;9.53;;;14.50;58.00;;;;;;5030273;28;20605;-63
2024/01/31 07:43:42;;;;;;;15.00;9.90;;;14.40;58.70;;;;;;5028340;28;20202;-65
2024/01/31 07:46:08;;;;;;;10.73;9.73;;;14.30;58.40;;;;;;5027365;28;20205;-70
2024/01/31 07:48:34;;;;;;;13.80;10.47;;;14.20;58.80;;;;;;5023470;28;20448;-63
2024/01/31 07:51:04;;;;;;;11.03;9.90;;;14.20;59.20;;;;;;5029874;28;20292;-62
2024/01/31 07:53:30;;;;;;;11.40;9.70;;;14.20;59.30;;;;;;5027672;28;20192;-64
2024/01/31 07:55:56;;;;;;;12.40;10.30;;;14.20;59.30;;;;;;5025902;28;20444;-65
2024/01/31 07:58:21;;;;;;;13.27;11.07;;;14.20;59.10;;;;;;5026967;28;20459;-67
2024/01/31 08:00:47;;;;;;;14.30;10.43;;;14.20;59.20;;;;;;5025725;28;20575;-74
2024/01/31 08:03:12;;;;;;;11.80;9.90;;;14.20;59.40;;;;;;5022798;28;20640;-68
2024/01/31 08:05:38;;;;;;;11.00;9.90;;;14.20;59.70;;;;;;5027333;28;20220;-61
2024/01/31 08:08:04;;;;;;;13.90;10.53;;;14.20;59.70;;;;;;5021923;28;20491;-62
2024/01/31 08:10:29;;;;;;;11.33;10.07;;;14.30;59.80;;;;;;5029667;28;20193;-64
2024/01/31 08:12:55;;;;;;;12.53;10.13;;;14.30;59.60;;;;;;5028196;28;20189;-65
2024/01/31 08:15:21;;;;;;;16.57;9.80;;;14.40;59.40;;;;;;5027757;28;20560;-69
2024/01/31 08:17:47;;;;;;;14.50;10.50;;;14.30;59.20;;;;;;5026175;28;20212;-74
2024/01/31 08:20:13;;;;;;;15.83;9.57;;;14.40;59.30;;;;;;5029656;28;20427;-66
2024/01/31 08:22:39;;;;;;;12.93;10.47;;;14.40;59.30;;;;;;5029350;28;20240;-66
2024/01/31 08:25:05;;;;;;;11.53;9.83;;;14.50;59.10;;;;;;5024506;28;20440;-63
2024/01/31 08:27:31;;;;;;;10.80;9.70;;;14.50;59.20;;;;;;5023490;28;20239;-68
2024/01/31 08:29:56;;;;;;;18.27;11.40;;;14.50;58.90;;;;;;5024566;28;20962;-62
2024/01/31 08:32:22;;;;;;;11.80;10.43;;;14.50;58.90;;;;;;5023890;28;20597;-62
2024/01/31 08:34:48;;;;;;;12.60;11.10;;;14.50;58.90;;;;;;5029171;28;20611;-69
2024/01/31 08:37:14;;;;;;;12.63;10.77;;;14.50;59.00;;;;;;5028296;28;20535;-63
2024/01/31 08:39:40;;;;;;;12.60;10.40;;;14.40;59.20;;;;;;5021010;28;20191;-65
2024/01/31 08:42:06;;;;;;;11.33;10.20;;;14.30;59.30;;;;;;5022459;28;20189;-63
2024/01/31 08:44:31;;;;;;;12.93;11.73;;;14.30;59.80;;;;;;5025357;28;20471;-63
2024/01/31 08:46:58;;;;;;;12.50;10.00;;;14.40;60.10;;;;;;5019698;28;20292;-66
2024/01/31 08:49:23;;;;;;;12.37;10.73;;;14.40;60.40;;;;;;5026675;28;20190;-63
2024/01/31 08:51:49;;;;;;;17.73;10.73;;;14.50;60.40;;;;;;5025298;28;20475;-69
2024/01/31 08:54:14;;;;;;;13.17;11.73;;;14.50;60.40;;;;;;5024832;28;20189;-61
2024/01/31 08:56:40;;;;;;;18.00;12.80;;;14.60;60.40;;;;;;5027974;28;20209;-63
2024/01/31 08:59:06;;;;;;;13.20;11.63;;;14.60;60.10;;;;;;5024816;28;20539;-64
2024/01/31 09:01:31;;;;;;;13.90;12.10;;;14.70;60.20;;;;;;5022636;28;20250;-67
2024/01/31 09:03:57;;;;;;;18.37;11.80;;;14.70;60.20;;;;;;5029046;28;20189;-63
2024/01/31 09:06:22;;;;;;;12.97;11.53;;;14.70;59.90;;;;;;5025039;28;20266;-64
2024/01/31 09:08:48;;;;;;;13.43;12.03;;;14.70;59.80;;;;;;5023740;28;20185;-66
2024/01/31 09:11:14;;;;;;;17.53;12.27;;;14.80;59.60;;;;;;5026663;28;20225;-64
2024/01/31 09:13:41;;;;;;;14.40;11.37;;;14.90;59.60;;;;;;5027571;28;20494;-67
2024/01/31 09:16:08;;;;;;;14.23;11.07;;;14.90;59.50;;;;;;5021203;28;20225;-68
2024/01/31 09:18:33;;;;;;;17.57;11.80;;;14.90;59.60;;;;;;5025085;28;21601;-66
2024/01/31 09:20:59;;;;;;;15.37;11.90;;;15.00;59.60;;;;;;5025634;28;20478;-64
2024/01/31 09:23:25;;;;;;;15.20;11.30;;;15.00;59.60;;;;;;5028368;28;20417;-62
2024/01/31 09:25:51;;;;;;;19.33;12.20;;;15.00;59.50;;;;;;5023727;28;20208;-63
2024/01/31 09:28:17;;;;;;;12.77;11.03;;;15.10;59.60;;;;;;5026246;28;20272;-61
2024/01/31 09:30:44;;;;;;;13.13;11.57;;;15.10;59.80;;;;;;5020560;28;20550;-65
2024/01/31 09:33:10;;;;;;;13.13;10.57;;;15.10;60.00;;;;;;5022950;28;20182;-65
2024/01/31 09:35:35;;;;;;;17.13;11.70;;;15.10;60.00;;;;;;5028612;28;20415;-61
2024/01/31 09:38:01;;;;;;;12.60;11.30;;;15.20;60.10;;;;;;5024382;28;20417;-64
2024/01/31 09:40:27;;;;;;;13.47;10.40;;;15.20;59.70;;;;;;5028732;28;20186;-71
2024/01/31 09:42:54;;;;;;;12.33;10.60;;;15.20;60.00;;;;;;5023147;28;20181;-61
2024/01/31 09:45:21;;;;;;;16.70;12.13;;;15.30;59.90;;;;;;5020713;28;20510;-66
2024/01/31 09:47:49;;;;;;;14.70;11.27;;;15.40;59.60;;;;;;5023213;28;20456;-62
2024/01/31 09:50:15;;;;;;;17.07;11.60;;;15.50;59.60;;;;;;5015808;28;20476;-67
2024/01/31 09:52:42;;;;;;;13.40;12.00;;;15.40;59.50;;;;;;5021643;28;20482;-64
2024/01/31 09:55:11;;;;;;;13.53;12.13;;;15.50;59.40;;;;;;5015919;28;20455;-64
2024/01/31 09:57:39;;;;;;;12.17;10.80;;;15.50;59.30;;;;;;5027015;28;20467;-64
2024/01/31 10:00:05;;;;;;;15.33;13.70;;;15.50;59.30;;;;;;5027827;28;20458;-66
2024/01/31 10:02:31;;;;;;;13.80;12.37;;;15.60;59.50;;;;;;5026246;28;20451;-64
2024/01/31 10:04:56;;;;;;;15.87;13.30;;;15.70;59.40;;;;;;5019559;28;20480;-65
2024/01/31 10:07:28;;;;;;;14.53;12.97;;;15.70;59.50;;;;;;5026065;28;20577;-66
2024/01/31 10:09:55;;;;;;;13.30;11.77;;;15.80;59.60;;;;;;5023552;28;20232;-67
2024/01/31 10:12:20;;;;;;;15.43;13.53;;;15.80;59.50;;;;;;5025505;28;20479;-67
2024/01/31 10:14:54;;;;;;;20.83;14.90;;;15.90;59.60;;;;;;5029145;28;20443;-65
2024/01/31 10:17:21;;;;;;;19.40;14.57;;;15.90;59.40;;;;;;5023437;28;20225;-70
2024/01/31 10:19:47;;;;;;;16.30;14.67;;;15.90;59.10;;;;;;5030554;28;21099;-64
2024/01/31 10:22:13;;;;;;;19.30;13.60;;;16.00;59.00;;;;;;5027688;28;20475;-67
2024/01/31 10:24:39;;;;;;;17.80;12.93;;;15.80;58.90;;;;;;5030978;28;20459;-64
2024/01/31 10:27:09;;;;;;;16.13;14.40;;;15.90;59.30;;;;;;5024759;28;20230;-63
2024/01/31 10:29:37;;;;;;;20.27;14.60;;;15.90;59.20;;;;;;5022112;28;20235;-66
2024/01/31 10:32:03;;;;;;;17.37;14.97;;;15.90;58.90;;;;;;5029750;28;20483;-65
2024/01/31 10:34:29;;;;;;;16.97;15.10;;;16.00;59.00;;;;;;5017541;28;20444;-66
2024/01/31 10:36:56;;;;;;;17.23;13.93;;;16.00;58.90;;;;;;5028637;28;20478;-64
2024/01/31 10:39:22;;;;;;;18.33;15.47;;;16.10;58.70;;;;;;5031047;28;20428;-66
2024/01/31 10:41:49;;;;;;;16.70;14.97;;;16.00;58.90;;;;;;5028556;28;20820;-62
2024/01/31 10:44:15;;;;;;;18.60;16.20;;;16.00;58.90;;;;;;5027228;28;20431;-66
2024/01/31 10:46:42;;;;;;;17.10;15.17;;;16.00;58.80;;;;;;5017540;28;20475;-67
2024/01/31 10:49:08;;;;;;;16.70;14.93;;;15.90;58.70;;;;;;5026539;28;20968;-62
2024/01/31 10:51:36;;;;;;;18.57;14.60;;;15.90;58.70;;;;;;5023541;28;20545;-64
2024/01/31 10:54:04;;;;;;;19.87;14.73;;;16.00;58.80;;;;;;5026313;28;20304;-66
2024/01/31 10:56:30;;;;;;;23.77;15.20;;;16.10;58.60;;;;;;5028420;28;20534;-66
2024/01/31 10:58:58;;;;;;;17.67;14.13;;;16.10;58.40;;;;;;5026965;28;20535;-64
2024/01/31 11:01:31;;;;;;;18.40;14.93;;;16.10;58.40;;;;;;5029654;28;21145;-63
2024/01/31 11:03:56;;;;;;;18.63;15.40;;;16.20;58.40;;;;;;5029083;28;20861;-63
2024/01/31 11:06:29;;;;;;;18.30;14.50;;;16.20;58.30;;;;;;5023473;28;20506;-65
2024/01/31 11:08:55;;;;;;;18.83;14.50;;;16.20;58.40;;;;;;5025684;28;20189;-66
2024/01/31 11:11:20;;;;;;;17.00;15.07;;;16.30;58.30;;;;;;5030244;28;20546;-65
2024/01/31 11:13:46;;;;;;;18.33;15.53;;;16.30;58.10;;;;;;5028166;28;20197;-65
2024/01/31 11:16:23;;;;;;;19.23;14.97;;;16.40;57.90;;;;;;5023504;28;20217;-64
2024/01/31 11:18:52;;;;;;;18.23;15.40;;;16.40;57.80;;;;;;5026928;28;20429;-67
2024/01/31 11:21:18;;;;;;;20.37;15.47;;;16.50;57.70;;;;;;5023746;28;21162;-64
2024/01/31 11:23:44;;;;;;;16.13;14.43;;;16.40;57.80;;;;;;5028752;28;20467;-65
2024/01/31 11:26:10;;;;;;;18.70;14.50;;;16.50;57.50;;;;;;5026693;28;20707;-66
2024/01/31 11:28:41;;;;;;;21.93;15.53;;;16.50;57.90;;;;;;5026523;28;20421;-63
2024/01/31 11:31:07;;;;;;;18.20;16.20;;;16.60;57.20;;;;;;5024411;28;20577;-69
2024/01/31 11:33:33;;;;;;;16.67;14.87;;;16.60;57.20;;;;;;5029316;28;20431;-66
2024/01/31 11:35:59;;;;;;;19.37;15.70;;;16.70;57.10;;;;;;5024907;28;20220;-63
2024/01/31 11:38:24;;;;;;;19.53;14.47;;;16.70;57.10;;;;;;5025230;28;20448;-63
2024/01/31 11:40:51;;;;;;;20.87;14.90;;;16.60;57.00;;;;;;5030425;28;20190;-65
2024/01/31 11:43:17;;;;;;;27.10;15.83;;;16.50;57.10;;;;;;5029168;28;20188;-65
2024/01/31 11:45:44;;;;;;;16.33;14.20;;;16.50;57.10;;;;;;5030001;28;20448;-63
2024/01/31 11:48:13;;;;;;;18.13;14.70;;;16.60;57.10;;;;;;5027450;28;20185;-65
2024/01/31 11:50:39;;;;;;;17.20;15.40;;;16.70;57.20;;;;;;5025834;28;20466;-64
2024/01/31 11:53:05;;;;;;;18.50;16.10;;;16.70;57.00;;;;;;5025305;28;20440;-66
2024/01/31 11:55:32;;;;;;;18.40;14.80;;;16.80;57.00;;;;;;5028183;28;20192;-64
2024/01/31 11:57:58;;;;;;;20.83;16.40;;;16.90;57.20;;;;;;5024549;28;20190;-64
2024/01/31 12:00:25;;;;;;;24.40;16.93;;;16.90;57.30;;;;;;5026501;28;20424;-64
2024/01/31 12:02:53;;;;;;;18.53;16.60;;;17.00;57.20;;;;;;5027279;28;20444;-65
2024/01/31 12:05:18;;;;;;;20.30;16.33;;;17.00;57.00;;;;;;5030014;28;20423;-65
2024/01/31 12:07:57;;;;;;;20.67;17.53;;;17.00;56.80;;;;;;5027857;28;20527;-68
2024/01/31 12:10:27;;;;;;;19.07;17.13;;;17.00;56.70;;;;;;5019653;28;20221;-63
2024/01/31 12:12:55;;;;;;;20.83;17.93;;;17.00;56.50;;;;;;5023834;28;20844;-64
2024/01/31 12:15:21;;;;;;;26.03;23.17;;;17.10;56.30;;;;;;5027673;28;20498;-65
2024/01/31 12:17:47;;;;;;;22.10;18.93;;;17.00;56.20;;;;;;5028069;28;20507;-63
2024/01/31 12:20:12;;;;;;;20.57;17.13;;;17.00;56.20;;;;;;5023120;28;20267;-64
2024/01/31 12:22:39;;;;;;;19.90;16.40;;;17.10;56.40;;;;;;5022169;28;20182;-64
2024/01/31 12:25:06;;;;;;;19.03;14.73;;;17.10;56.40;;;;;;5024864;28;20189;-65